Terminal Aerodrome Forecast
Issued by NWS Tampa Bay Area, FL

Home | Current Version | Previous Version | Text Only | Print | Product List | Glossary Off
Versions: 1 2 3 4 5 6 7 8 9 10 11 12 13 14

000
FTUS42 KTBW 011608 AAA
TAFSRQ
TAF AMD
KSRQ 011608Z 0116/0212 18012G20KT P6SM SCT025 BKN250
      TEMPO 0116/0118 BKN025
     FM012000 22012KT P6SM VCTS SCT030CB BKN200
     FM020200 VRB04KT P6SM SCT035 BKN200=

USA.gov is the U.S. government's official web portal to all federal, state and local government web resources and services.